createdAt,value
2022-11-24T00:01:08.552Z,6.42
2022-11-24T00:03:35.606Z,6.42
2022-11-24T00:06:04.559Z,6.43
2022-11-24T00:08:31.551Z,6.20
2022-11-24T00:11:06.497Z,6.21
2022-11-24T00:13:33.878Z,6.18
2022-11-24T00:16:31.045Z,6.19
2022-11-24T00:18:59.469Z,6.08
2022-11-24T00:21:27.706Z,6.02
2022-11-24T00:23:54.555Z,6.02
2022-11-24T00:26:23.567Z,6.02
2022-11-24T00:28:51.677Z,6.07
2022-11-24T00:31:19.777Z,6.08
2022-11-24T00:33:48.064Z,6.16
2022-11-24T00:36:15.777Z,6.25
2022-11-24T00:38:43.011Z,6.39
2022-11-24T00:41:10.124Z,6.39
2022-11-24T00:43:36.971Z,6.45
2022-11-24T00:46:04.211Z,6.56
2022-11-24T00:48:31.424Z,6.55
2022-11-24T00:51:02.620Z,6.63
2022-11-24T00:53:30.229Z,6.56
2022-11-24T00:55:57.032Z,6.57
2022-11-24T00:58:24.778Z,6.63
2022-11-24T01:00:51.736Z,6.64
2022-11-24T01:03:20.279Z,6.55
2022-11-24T01:05:47.230Z,6.56
2022-11-24T01:08:14.889Z,6.52
2022-11-24T01:10:41.667Z,6.40
2022-11-24T01:13:08.479Z,6.39
2022-11-24T01:15:36.272Z,6.34
2022-11-24T01:18:04.658Z,6.27
2022-11-24T01:20:32.113Z,6.23
2022-11-24T01:22:58.956Z,6.24
2022-11-24T01:25:25.638Z,6.19
2022-11-24T01:27:52.749Z,6.11
2022-11-24T01:30:19.547Z,5.96
2022-11-24T01:32:46.279Z,5.85
2022-11-24T01:35:13.035Z,5.86
2022-11-24T01:37:39.806Z,5.77
2022-11-24T01:40:07.328Z,5.73
2022-11-24T01:42:43.778Z,5.68
2022-11-24T01:45:36.659Z,5.66
2022-11-24T01:48:05.829Z,5.56
2022-11-24T01:50:33.789Z,5.55
2022-11-24T01:53:00.646Z,5.60
2022-11-24T01:55:31.012Z,5.58
2022-11-24T01:58:05.868Z,5.62
2022-11-24T02:00:34.001Z,5.62
2022-11-24T02:03:00.964Z,5.62
2022-11-24T02:06:04.265Z,5.68
2022-11-24T02:08:40.550Z,5.66
2022-11-24T02:11:07.561Z,5.57
2022-11-24T02:13:37.374Z,5.60
2022-11-24T02:16:05.859Z,5.55
2022-11-24T02:18:32.717Z,5.57
2022-11-24T02:21:00.202Z,5.52
2022-11-24T02:23:42.176Z,5.57
2022-11-24T02:26:31.376Z,5.61
2022-11-24T02:28:58.228Z,5.60
2022-11-24T02:31:25.349Z,5.61
2022-11-24T02:33:52.214Z,5.59
2022-11-24T02:36:18.969Z,5.59
2022-11-24T02:38:45.665Z,5.57
2022-11-24T02:41:15.873Z,5.54
2022-11-24T02:43:48.430Z,5.54
2022-11-24T02:46:15.191Z,5.52
2022-11-24T02:48:42.377Z,5.48
2022-11-24T02:51:09.360Z,5.46
2022-11-24T02:53:36.076Z,5.49
2022-11-24T02:56:02.901Z,5.46
2022-11-24T02:58:29.721Z,5.46
2022-11-24T03:00:57.350Z,5.45
2022-11-24T03:03:24.671Z,5.46
2022-11-24T03:05:51.445Z,5.46
2022-11-24T03:08:18.212Z,5.44
2022-11-24T03:10:45.255Z,5.44
2022-11-24T03:13:12.154Z,5.47
2022-11-24T03:15:38.945Z,5.50
2022-11-24T03:18:07.098Z,5.50
2022-11-24T03:20:33.933Z,5.50
2022-11-24T03:23:00.616Z,5.50
2022-11-24T03:25:27.383Z,5.46
2022-11-24T03:27:56.488Z,5.49
2022-11-24T03:30:23.287Z,5.50
2022-11-24T03:32:52.570Z,5.49
2022-11-24T03:35:20.762Z,5.48
2022-11-24T03:37:47.529Z,5.51
2022-11-24T03:40:14.429Z,5.49
2022-11-24T03:42:48.869Z,5.49
2022-11-24T03:45:44.122Z,5.50
2022-11-24T03:48:04.536Z,5.42
2022-11-24T03:50:31.254Z,5.46
2022-11-24T03:52:58.068Z,5.52
2022-11-24T03:55:24.878Z,5.48
2022-11-24T03:57:51.781Z,5.53
2022-11-24T04:00:18.842Z,5.50
2022-11-24T04:02:45.650Z,5.52
2022-11-24T04:05:12.534Z,5.52
2022-11-24T04:07:39.417Z,5.59
2022-11-24T04:10:06.983Z,5.56
2022-11-24T04:12:46.032Z,5.67
2022-11-24T04:15:15.654Z,5.67
2022-11-24T04:17:42.917Z,5.71
2022-11-24T04:20:10.464Z,5.73
2022-11-24T04:22:37.184Z,5.66
2022-11-24T04:25:04.813Z,5.73
2022-11-24T04:27:35.245Z,5.75
2022-11-24T04:30:02.251Z,5.72
2022-11-24T04:32:29.522Z,5.60
2022-11-24T04:34:56.375Z,5.58
2022-11-24T04:37:23.073Z,5.48
2022-11-24T04:39:49.910Z,5.38
2022-11-24T04:42:16.612Z,5.32
2022-11-24T04:44:43.321Z,5.28
2022-11-24T04:47:15.723Z,5.35
2022-11-24T04:49:42.491Z,5.39
2022-11-24T04:52:09.193Z,5.55
2022-11-24T04:54:36.159Z,5.54
2022-11-24T04:57:03.020Z,5.49
2022-11-24T04:59:30.146Z,5.67
2022-11-24T05:01:56.864Z,5.76
2022-11-24T05:04:23.748Z,5.74
2022-11-24T05:06:50.457Z,5.79
2022-11-24T05:09:17.918Z,5.84
2022-11-24T05:11:44.683Z,5.78
2022-11-24T05:14:11.422Z,5.75
2022-11-24T05:16:38.204Z,5.82
2022-11-24T05:19:05.006Z,5.83
2022-11-24T05:21:31.766Z,5.85
2022-11-24T05:23:58.561Z,5.93
2022-11-24T05:26:26.803Z,6.01
2022-11-24T05:28:53.791Z,6.09
2022-11-24T05:31:20.544Z,6.09
2022-11-24T05:33:47.521Z,6.09
2022-11-24T05:36:34.183Z,6.02
2022-11-24T05:39:01.401Z,5.93
2022-11-24T05:41:28.129Z,5.88
2022-11-24T05:43:54.930Z,5.86
2022-11-24T05:46:21.729Z,5.85
2022-11-24T05:48:48.749Z,5.78
2022-11-24T05:51:15.441Z,5.77
2022-11-24T05:53:42.243Z,5.77
2022-11-24T05:56:09.048Z,5.87
2022-11-24T05:58:35.823Z,5.90
2022-11-24T06:01:06.405Z,5.93
2022-11-24T06:03:33.337Z,6.00
2022-11-24T06:06:00.110Z,5.87
2022-11-24T06:08:30.840Z,5.93
2022-11-24T06:11:17.613Z,6.06
2022-11-24T06:13:45.632Z,6.14
2022-11-24T06:16:12.884Z,6.01
2022-11-24T06:18:39.758Z,6.08
2022-11-24T06:21:11.465Z,6.08
2022-11-24T06:23:39.414Z,6.07
2022-11-24T06:26:06.790Z,6.21
2022-11-24T06:28:33.593Z,6.17
2022-11-24T06:31:04.223Z,6.09
2022-11-24T06:33:34.684Z,6.28
2022-11-24T06:36:04.641Z,6.27
2022-11-24T06:38:32.207Z,6.26
2022-11-24T06:41:03.640Z,6.28
2022-11-24T06:43:31.083Z,6.21
2022-11-24T06:45:58.370Z,6.09
2022-11-24T06:48:26.147Z,6.13
2022-11-24T06:50:53.511Z,6.08
2022-11-24T06:53:20.542Z,6.05
2022-11-24T06:55:47.418Z,5.97
2022-11-24T06:58:14.172Z,5.97
2022-11-24T07:00:41.078Z,5.88
2022-11-24T07:03:08.965Z,5.85
2022-11-24T07:05:35.708Z,5.84
2022-11-24T07:08:02.549Z,5.76
2022-11-24T07:10:29.355Z,5.79
2022-11-24T07:12:56.099Z,5.79
2022-11-24T07:15:22.877Z,5.74
2022-11-24T07:17:49.631Z,5.75
2022-11-24T07:20:16.819Z,5.70
2022-11-24T07:22:43.604Z,5.65
2022-11-24T07:25:10.996Z,5.67
2022-11-24T07:27:37.810Z,5.63
2022-11-24T07:30:05.050Z,5.62
2022-11-24T07:32:31.848Z,5.64
2022-11-24T07:34:58.731Z,5.58
2022-11-24T07:37:31.014Z,5.59
2022-11-24T07:39:58.452Z,5.60
2022-11-24T07:42:25.122Z,5.55
2022-11-24T07:44:51.900Z,5.52
2022-11-24T07:47:18.639Z,5.54
2022-11-24T07:49:45.516Z,5.55
2022-11-24T07:52:12.259Z,5.59
2022-11-24T07:54:38.987Z,5.51
2022-11-24T07:57:05.708Z,5.45
2022-11-24T07:59:32.572Z,5.41
2022-11-24T08:01:59.331Z,5.33
2022-11-24T08:04:26.078Z,5.29
2022-11-24T08:06:52.804Z,5.26
2022-11-24T08:09:19.682Z,5.30
2022-11-24T08:11:46.419Z,5.37
2022-11-24T08:14:13.225Z,5.36
2022-11-24T08:16:40.081Z,5.40
2022-11-24T08:19:06.938Z,5.28
2022-11-24T08:21:33.799Z,5.27
2022-11-24T08:24:00.710Z,5.22
2022-11-24T08:26:27.590Z,5.31
2022-11-24T08:28:56.756Z,5.32
2022-11-24T08:31:24.988Z,5.33
2022-11-24T08:33:51.820Z,5.34
2022-11-24T08:36:19.391Z,5.24
2022-11-24T08:38:47.310Z,5.29
2022-11-24T08:41:16.118Z,5.29
2022-11-24T08:43:43.333Z,5.26
2022-11-24T08:46:12.689Z,5.30
2022-11-24T08:48:39.652Z,5.35
2022-11-24T08:51:09.424Z,5.32
2022-11-24T08:53:36.506Z,5.29
2022-11-24T08:56:05.147Z,5.34
2022-11-24T08:58:32.535Z,5.37
2022-11-24T09:01:14.167Z,5.39
2022-11-24T09:03:48.255Z,5.45
2022-11-24T09:06:25.241Z,5.56
2022-11-24T09:08:54.095Z,5.62
2022-11-24T09:11:20.823Z,5.78
2022-11-24T09:13:47.713Z,5.81
2022-11-24T09:16:17.219Z,5.88
2022-11-24T09:18:44.759Z,5.90
2022-11-24T09:21:12.854Z,5.96
2022-11-24T09:23:40.598Z,6.01
2022-11-24T09:26:09.256Z,6.06
2022-11-24T09:28:36.236Z,6.05
2022-11-24T09:31:04.652Z,6.05
2022-11-24T09:33:32.263Z,6.12
2022-11-24T09:35:59.612Z,6.16
2022-11-24T09:38:26.649Z,6.11
2022-11-24T09:40:55.869Z,5.97
2022-11-24T09:43:37.527Z,6.07
2022-11-24T09:46:09.258Z,6.25
2022-11-24T09:48:47.336Z,6.24
2022-11-24T09:51:15.334Z,6.37
2022-11-24T09:53:53.824Z,6.42
2022-11-24T09:56:26.552Z,6.31
2022-11-24T09:59:06.645Z,6.29
2022-11-24T10:01:37.013Z,6.14
2022-11-24T10:04:06.636Z,6.12
2022-11-24T10:06:46.056Z,6.16
2022-11-24T10:09:47.233Z,6.21
2022-11-24T10:12:41.429Z,6.48
2022-11-24T10:15:18.917Z,6.42
2022-11-24T10:18:21.264Z,6.23
2022-11-24T10:21:12.806Z,6.16
2022-11-24T10:23:46.303Z,6.19
2022-11-24T10:26:26.984Z,6.18
2022-11-24T10:28:55.499Z,6.20
2022-11-24T10:31:23.992Z,6.19
2022-11-24T10:33:51.100Z,6.20
2022-11-24T10:36:32.290Z,6.21
2022-11-24T10:39:05.032Z,6.19
2022-11-24T10:41:52.177Z,6.29
2022-11-24T10:44:18.962Z,6.33
2022-11-24T10:46:45.871Z,6.39
2022-11-24T10:49:19.998Z,6.47
2022-11-24T10:51:54.678Z,6.49
2022-11-24T10:54:23.561Z,6.64
2022-11-24T10:56:52.335Z,6.63
2022-11-24T10:59:24.923Z,6.66
2022-11-24T11:01:52.665Z,6.69
2022-11-24T11:04:28.176Z,6.74
2022-11-24T11:07:27.710Z,6.78
2022-11-24T11:10:33.085Z,6.85
2022-11-24T11:12:59.882Z,6.88
2022-11-24T11:15:30.349Z,6.95
2022-11-24T11:17:59.022Z,7.05
2022-11-24T11:20:28.261Z,7.06
2022-11-24T11:22:56.207Z,7.09
2022-11-24T11:25:41.273Z,7.12
2022-11-24T11:28:29.675Z,7.12
2022-11-24T11:31:22.162Z,7.11
2022-11-24T11:34:08.273Z,7.16
2022-11-24T11:36:53.175Z,7.28
2022-11-24T11:39:30.371Z,7.28
2022-11-24T11:43:01.189Z,7.38
2022-11-24T11:45:30.148Z,7.51
2022-11-24T11:48:03.327Z,7.55
2022-11-24T11:51:06.765Z,7.65
2022-11-24T11:54:09.053Z,7.67
2022-11-24T11:56:47.159Z,7.80
2022-11-24T11:59:16.730Z,7.84
2022-11-24T12:02:24.966Z,7.91
2022-11-24T12:04:59.688Z,7.98
2022-11-24T12:07:41.707Z,7.97
2022-11-24T12:10:14.660Z,7.98
2022-11-24T12:13:04.319Z,7.91
2022-11-24T12:15:47.700Z,7.87
2022-11-24T12:18:58.799Z,7.94
2022-11-24T12:21:29.327Z,7.94
2022-11-24T12:24:19.336Z,8.00
2022-11-24T12:26:59.247Z,8.07
2022-11-24T12:29:34.393Z,8.10
2022-11-24T12:32:31.171Z,8.19
2022-11-24T12:35:15.648Z,8.47
2022-11-24T12:38:07.193Z,8.65
2022-11-24T12:41:18.088Z,8.69
2022-11-24T12:43:50.769Z,9.40
2022-11-24T12:46:39.478Z,10.11
2022-11-24T12:49:18.932Z,9.86
2022-11-24T12:51:49.399Z,9.72
2022-11-24T12:54:19.055Z,9.67
2022-11-24T12:57:23.867Z,9.54
2022-11-24T13:00:19.691Z,9.53
2022-11-24T13:02:51.843Z,9.40
2022-11-24T13:05:48.199Z,9.28
2022-11-24T13:08:16.009Z,9.23
2022-11-24T13:10:58.362Z,9.17
2022-11-24T13:13:50.049Z,9.09
2022-11-24T13:19:12.654Z,8.92
2022-11-24T13:21:51.102Z,8.83
2022-11-24T13:24:19.095Z,8.78
2022-11-24T13:26:52.845Z,8.73
2022-11-24T13:29:28.828Z,8.68
2022-11-24T13:32:17.703Z,8.63
2022-11-24T13:34:45.791Z,8.59
2022-11-24T13:37:31.542Z,8.60
2022-11-24T13:40:22.991Z,8.59
2022-11-24T13:43:00.482Z,8.56
2022-11-24T13:45:40.322Z,8.62
2022-11-24T13:48:19.835Z,8.62
2022-11-24T13:50:50.007Z,8.59
2022-11-24T13:53:42.668Z,8.63
2022-11-24T13:56:12.430Z,8.60
2022-11-24T13:58:40.860Z,8.62
2022-11-24T14:01:28.807Z,8.62
2022-11-24T14:04:30.651Z,8.55
2022-11-24T14:07:07.873Z,8.56
2022-11-24T14:09:50.491Z,8.54
2022-11-24T14:12:23.881Z,8.50
2022-11-24T14:14:57.210Z,8.46
2022-11-24T14:17:24.011Z,8.45
2022-11-24T14:19:55.242Z,8.56
2022-11-24T14:22:26.812Z,8.52
2022-11-24T14:25:01.302Z,8.54
2022-11-24T14:27:34.641Z,8.57
2022-11-24T14:30:13.653Z,8.63
2022-11-24T14:32:40.778Z,8.62
2022-11-24T14:35:31.798Z,8.62
2022-11-24T14:38:01.366Z,8.61
2022-11-24T14:40:51.365Z,8.61
2022-11-24T14:43:30.995Z,8.61
2022-11-24T14:46:04.896Z,8.62
2022-11-24T14:48:34.129Z,8.62
2022-11-24T14:51:15.620Z,8.64
2022-11-24T14:53:44.181Z,8.60
2022-11-24T14:56:26.031Z,8.57
2022-11-24T14:58:54.280Z,8.51
2022-11-24T15:01:32.862Z,8.53
2022-11-24T15:04:39.308Z,8.56
2022-11-24T15:07:11.655Z,8.51
2022-11-24T15:09:43.133Z,8.50
2022-11-24T15:12:28.871Z,8.50
2022-11-24T15:15:07.852Z,8.48
2022-11-24T15:17:34.825Z,8.45
2022-11-24T15:20:09.302Z,8.39
2022-11-24T15:22:41.249Z,8.36
2022-11-24T15:25:25.810Z,8.35
2022-11-24T15:27:52.859Z,8.24
2022-11-24T15:30:19.611Z,8.30
2022-11-24T15:32:52.182Z,8.53
2022-11-24T15:35:23.962Z,8.62
2022-11-24T15:37:54.026Z,8.36
2022-11-24T15:40:22.375Z,8.34
2022-11-24T15:42:54.221Z,8.28
2022-11-24T15:45:24.427Z,8.29
2022-11-24T15:47:51.712Z,8.33
2022-11-24T15:50:19.257Z,8.31
2022-11-24T15:52:46.745Z,8.28
2022-11-24T15:55:19.166Z,8.27
2022-11-24T15:57:46.308Z,8.31
2022-11-24T16:00:20.965Z,8.32
2022-11-24T16:02:48.081Z,8.26
2022-11-24T16:05:15.923Z,8.25
2022-11-24T16:07:42.971Z,8.34
2022-11-24T16:10:30.582Z,8.28
2022-11-24T16:12:57.463Z,8.31
2022-11-24T16:15:24.238Z,8.30
2022-11-24T16:17:51.381Z,8.30
2022-11-24T16:20:18.289Z,8.29
2022-11-24T16:22:45.288Z,8.34
2022-11-24T16:25:12.470Z,8.29
2022-11-24T16:27:39.329Z,8.25
2022-11-24T16:30:07.036Z,8.22
2022-11-24T16:32:34.007Z,8.21
2022-11-24T16:35:00.846Z,8.11
2022-11-24T16:37:27.606Z,8.14
2022-11-24T16:39:54.393Z,8.12
2022-11-24T16:42:21.165Z,8.06
2022-11-24T16:44:49.572Z,8.10
2022-11-24T16:47:16.743Z,8.07
2022-11-24T16:49:43.496Z,7.99
2022-11-24T16:52:10.392Z,8.00
2022-11-24T16:54:37.231Z,7.97
2022-11-24T16:57:04.224Z,7.97
2022-11-24T16:59:31.001Z,7.98
2022-11-24T17:01:58.792Z,8.01
2022-11-24T17:04:25.806Z,8.02
2022-11-24T17:06:52.674Z,7.98
2022-11-24T17:09:19.405Z,8.06
2022-11-24T17:11:46.242Z,8.07
2022-11-24T17:14:13.276Z,8.10
2022-11-24T17:16:40.652Z,8.10
2022-11-24T17:19:07.544Z,8.08
2022-11-24T17:21:34.450Z,8.13
2022-11-24T17:24:05.508Z,8.19
2022-11-24T17:26:33.004Z,8.24
2022-11-24T17:28:59.768Z,8.22
2022-11-24T17:31:29.048Z,8.34
2022-11-24T17:33:57.576Z,8.34
2022-11-24T17:36:24.599Z,8.32
2022-11-24T17:38:51.852Z,8.34
2022-11-24T17:41:20.168Z,8.35
2022-11-24T17:43:51.084Z,8.41
2022-11-24T17:46:18.286Z,8.41
2022-11-24T17:48:45.531Z,8.56
2022-11-24T17:51:17.097Z,8.60
2022-11-24T17:53:45.503Z,8.65
2022-11-24T17:56:18.349Z,8.58
2022-11-24T17:58:45.415Z,8.69
2022-11-24T18:01:13.387Z,8.73
2022-11-24T18:03:41.284Z,8.71
2022-11-24T18:06:13.163Z,8.80
2022-11-24T18:08:41.864Z,8.84
2022-11-24T18:11:11.204Z,8.82
2022-11-24T18:13:56.633Z,8.79
2022-11-24T18:16:28.018Z,8.76
2022-11-24T18:19:08.370Z,8.83
2022-11-24T18:21:37.990Z,8.83
2022-11-24T18:24:05.036Z,8.87
2022-11-24T18:26:31.927Z,8.90
2022-11-24T18:28:58.645Z,8.78
2022-11-24T18:31:26.375Z,8.78
2022-11-24T18:33:53.372Z,8.74
2022-11-24T18:36:30.034Z,8.84
2022-11-24T18:39:00.370Z,8.87
2022-11-24T18:41:28.605Z,8.90
2022-11-24T18:43:58.308Z,8.87
2022-11-24T18:46:25.246Z,8.85
2022-11-24T18:48:53.286Z,8.84
2022-11-24T18:51:20.165Z,8.80
2022-11-24T18:53:51.851Z,8.84
2022-11-24T18:56:19.107Z,8.71
2022-11-24T18:58:46.353Z,8.83
2022-11-24T19:01:16.033Z,8.78
2022-11-24T19:03:49.035Z,8.78
2022-11-24T19:06:17.708Z,8.74
2022-11-24T19:08:45.243Z,8.82
2022-11-24T19:11:23.719Z,8.83
2022-11-24T19:13:51.304Z,8.80
2022-11-24T19:16:19.553Z,8.82
2022-11-24T19:18:53.978Z,8.71
2022-11-24T19:21:22.028Z,8.73
2022-11-24T19:23:50.041Z,8.79
2022-11-24T19:26:16.895Z,8.75
2022-11-24T19:28:44.505Z,8.76
2022-11-24T19:31:13.140Z,8.68
2022-11-24T19:33:40.529Z,8.64
2022-11-24T19:36:18.382Z,8.50
2022-11-24T19:38:56.110Z,8.43
2022-11-24T19:41:27.793Z,8.25
2022-11-24T19:43:55.004Z,8.29
2022-11-24T19:46:23.439Z,8.23
2022-11-24T19:48:54.248Z,8.12
2022-11-24T19:51:24.249Z,8.10
2022-11-24T19:53:51.277Z,7.96
2022-11-24T19:56:26.279Z,7.97
2022-11-24T19:58:54.485Z,7.90
2022-11-24T20:01:24.773Z,7.89
2022-11-24T20:03:59.042Z,7.83
2022-11-24T20:06:31.530Z,7.71
2022-11-24T20:09:00.467Z,7.62
2022-11-24T20:11:28.406Z,7.69
2022-11-24T20:13:55.341Z,7.57
2022-11-24T20:16:28.263Z,7.59
2022-11-24T20:19:21.463Z,7.58
2022-11-24T20:21:50.066Z,7.54
2022-11-24T20:24:23.373Z,7.46
2022-11-24T20:26:56.457Z,7.47
2022-11-24T20:29:23.339Z,7.44
2022-11-24T20:31:53.451Z,7.46
2022-11-24T20:34:21.038Z,7.46
2022-11-24T20:36:48.550Z,7.44
2022-11-24T20:39:18.638Z,7.44
2022-11-24T20:41:45.896Z,7.44
2022-11-24T20:44:15.704Z,7.43
2022-11-24T20:46:43.819Z,7.41
2022-11-24T20:49:16.176Z,7.43
2022-11-24T20:51:49.646Z,7.43
2022-11-24T20:54:18.247Z,7.42
2022-11-24T20:56:46.576Z,7.39
2022-11-24T20:59:16.405Z,7.43
2022-11-24T21:01:45.644Z,7.44
2022-11-24T21:04:15.564Z,7.44
2022-11-24T21:06:42.462Z,7.42
2022-11-24T21:09:09.691Z,7.48
2022-11-24T21:11:38.938Z,7.43
2022-11-24T21:14:06.176Z,7.47
2022-11-24T21:16:35.356Z,7.52
2022-11-24T21:19:05.315Z,7.59
2022-11-24T21:21:34.719Z,7.69
2022-11-24T21:24:07.306Z,7.73
2022-11-24T21:26:38.218Z,7.80
2022-11-24T21:29:05.978Z,7.83
2022-11-24T21:31:36.858Z,7.89
2022-11-24T21:34:04.067Z,7.86
2022-11-24T21:36:31.709Z,7.87
2022-11-24T21:38:59.180Z,7.87
2022-11-24T21:41:28.590Z,7.83
2022-11-24T21:43:56.031Z,7.80
2022-11-24T21:46:23.272Z,7.79
2022-11-24T21:48:50.366Z,7.73
2022-11-24T21:51:19.320Z,7.73
2022-11-24T21:53:47.107Z,7.68
2022-11-24T21:56:19.307Z,7.63
2022-11-24T21:58:52.722Z,7.59
2022-11-24T22:01:22.060Z,7.53
2022-11-24T22:03:48.930Z,7.49
2022-11-24T22:06:17.813Z,7.44
2022-11-24T22:08:45.116Z,7.44
2022-11-24T22:11:13.863Z,7.37
2022-11-24T22:13:41.759Z,7.32
2022-11-24T22:16:11.147Z,7.27
2022-11-24T22:18:40.091Z,7.24
2022-11-24T22:21:08.351Z,7.21
2022-11-24T22:23:36.013Z,7.18
2022-11-24T22:26:14.475Z,7.10
2022-11-24T22:28:41.814Z,7.03
2022-11-24T22:31:20.461Z,7.01
2022-11-24T22:33:47.984Z,7.01
2022-11-24T22:36:16.104Z,6.98
2022-11-24T22:38:43.308Z,6.93
2022-11-24T22:41:15.277Z,6.90
2022-11-24T22:43:43.121Z,6.93
2022-11-24T22:46:12.193Z,6.93
2022-11-24T22:48:39.541Z,6.89
2022-11-24T22:51:08.796Z,6.85
2022-11-24T22:53:35.754Z,6.81
2022-11-24T22:56:04.455Z,6.82
2022-11-24T22:58:33.045Z,6.73
2022-11-24T23:01:08.931Z,6.77
2022-11-24T23:03:36.575Z,6.73
2022-11-24T23:06:05.474Z,6.66
2022-11-24T23:08:34.010Z,6.66
2022-11-24T23:11:06.538Z,6.58
2022-11-24T23:13:33.621Z,6.56
2022-11-24T23:16:09.343Z,6.55
2022-11-24T23:18:37.932Z,6.51
2022-11-24T23:21:15.340Z,6.50
2022-11-24T23:23:42.658Z,6.50
2022-11-24T23:26:11.921Z,6.50
2022-11-24T23:28:39.013Z,6.51
2022-11-24T23:31:10.061Z,6.52
2022-11-24T23:33:37.555Z,6.54
2022-11-24T23:36:09.242Z,6.49
2022-11-24T23:38:36.503Z,6.58
2022-11-24T23:41:05.559Z,6.58
2022-11-24T23:43:33.396Z,6.56
2022-11-24T23:46:04.149Z,6.54
2022-11-24T23:48:31.695Z,6.63
2022-11-24T23:51:06.141Z,6.66
2022-11-24T23:53:33.737Z,6.68
2022-11-24T23:56:00.524Z,6.64
2022-11-24T23:58:27.978Z,6.75
